LGA weather

La Guardia Airport
New York, New York, United States

Public forecast

Using degrees Fahrenheit for public forecast. Weather courtesy of forecast.io.

METAR (pilot weather report)

Retrieved 2019/02/17 13:51 UTC (40 minutes ago):

KLGA 171351Z 04009KT 10SM FEW038 FEW090 SCT180 SCT250 M02/M11 A3018 RMK AO2 SLP219 T10171111

TAF (pilot weather forecast)

Retrieved 2019/02/17 12:06 UTC (2 hours ago):

TAF KLGA 171202Z 1712/1818 01008KT P6SM FEW250 FM171800 09006KT P6SM SCT250 FM172000 15007KT P6SM SCT100 BKN200 FM180300 11008KT 3SM -SNPL BR BKN015 OVC025 FM180700 06009KT 2SM -PLRA BR BKN008 FM180900 06011KT 2SM -RA BR BKN006 FM181300 05006KT 3SM -DZ BR OVC009 FM181500 01006KT 5SM -DZ BR BKN009 OVC015 FM181700 33007KT P6SM BKN015 OVC025